Arnold Bay, Vermont
Current Conditions -  °F | °C
As of 8:15 AM on Thursday 18 Dec 2014 (Local Time) from K6B0 Reporting Station
Haze Haze  
Wind Chill: 32°   Ceiling: 3700
Heat Index: 32°   Visibility: 2.5mi
Dew Point: 32°   Wind: 0mph
Humidity: 100%   Direction: NA
Pressure: 29.81"   Gusts: NA
Location:  44.0804°N, 73.3324°W
Report Text: K6B0 181315Z AUTO 00000KT 2 1/2SM BR SCT019 SCT025 OVC037 00/00 A2981 RMK AO2 T00020002
Loading
Personal Weather Stations






























Interactive Weather Map New forecast layout! Learn more

10-Day Weather Forecast

Advertisements
Track Severe Weather on mobile